XIO229 LOWI-EGLF
Flight info
| Callsign | XIO229 |
|---|---|
| Flight time | 1h 28m |
| Altitude | 43000 |
| Route | MOGTI P66 KPT L856 HOC DCT LUL DCT RLP DCT ROTSI DCT KOTUN DCT NIDUV DCT SOSUN DCT SUBIP UM8 ELDAX |
| Aircraft | C700/M-SBDE1E2E3FGHIJ1J3J4J7P2RWXYZ/LB2D1 |
Departure
| Time | 2026-05-07 09:30 |
|---|---|
| Airport | Innsbruck Airport (LOWI) |
Arrival
| Time | 2026-05-07 10:59 |
|---|---|
| Airport | Farnborough Airport (EGLF) |
| Time | Latitude | Longitude | Altitude | Speed | Heading |
|---|---|---|---|---|---|
| 2026-05-07 09:07 | 47.25771 | 11.34647 | 1898 ft | 0 kts | 207° |
| 2026-05-07 09:24 | 47.25770 | 11.34646 | 1888 ft | 2 kts | 207° |
| 2026-05-07 09:24 | 47.25749 | 11.34592 | 1898 ft | 11 kts | 267° |
| 2026-05-07 09:24 | 47.25799 | 11.34527 | 1898 ft | 12 kts | 358° |
| 2026-05-07 09:24 | 47.25828 | 11.34583 | 1898 ft | 6 kts | 90° |
| 2026-05-07 09:25 | 47.25836 | 11.34667 | 1898 ft | 11 kts | 81° |
| 2026-05-07 09:25 | 47.25852 | 11.34814 | 1892 ft | 16 kts | 82° |
| 2026-05-07 09:25 | 47.25868 | 11.34955 | 1894 ft | 10 kts | 80° |
| 2026-05-07 09:25 | 47.25876 | 11.35027 | 1898 ft | 4 kts | 80° |
| 2026-05-07 09:26 | 47.25877 | 11.35039 | 1898 ft | 0 kts | 80° |
| 2026-05-07 09:26 | 47.25880 | 11.35057 | 1888 ft | 5 kts | 81° |
| 2026-05-07 09:26 | 47.25891 | 11.35162 | 1898 ft | 14 kts | 81° |
| 2026-05-07 09:27 | 47.25910 | 11.35292 | 1892 ft | 2 kts | 33° |
| 2026-05-07 09:27 | 47.25929 | 11.35290 | 1898 ft | 3 kts | 351° |
| 2026-05-07 09:27 | 47.26007 | 11.35271 | 1898 ft | 8 kts | 351° |
| 2026-05-07 09:28 | 47.26068 | 11.35256 | 1889 ft | 10 kts | 349° |
| 2026-05-07 09:28 | 47.26111 | 11.35236 | 1894 ft | 2 kts | 294° |
| 2026-05-07 09:28 | 47.26111 | 11.35224 | 1898 ft | 0 kts | 261° |
| 2026-05-07 09:28 | 47.26109 | 11.35209 | 1892 ft | 2 kts | 257° |
| 2026-05-07 09:29 | 47.26107 | 11.35201 | 1898 ft | 0 kts | 257° |
| 2026-05-07 09:29 | 47.26103 | 11.35165 | 1896 ft | 22 kts | 262° |
| 2026-05-07 09:30 | 47.26025 | 11.34444 | 1898 ft | 118 kts | 261° |
| 2026-05-07 09:30 | 47.25882 | 11.32933 | 2302 ft | 164 kts | 261° |
| 2026-05-07 09:30 | 47.25730 | 11.31196 | 3451 ft | 178 kts | 262° |
| 2026-05-07 09:30 | 47.25563 | 11.29313 | 4679 ft | 190 kts | 262° |
| 2026-05-07 09:31 | 47.25396 | 11.27308 | 5863 ft | 213 kts | 270° |
| 2026-05-07 09:31 | 47.25783 | 11.25078 | 6876 ft | 238 kts | 292° |
| 2026-05-07 09:31 | 47.26455 | 11.22713 | 7866 ft | 263 kts | 291° |
| 2026-05-07 09:31 | 47.27163 | 11.20264 | 9412 ft | 262 kts | 291° |
| 2026-05-07 09:32 | 47.27913 | 11.17712 | 10771 ft | 280 kts | 291° |
| 2026-05-07 09:32 | 47.28725 | 11.14934 | 11769 ft | 309 kts | 291° |
| 2026-05-07 09:32 | 47.29595 | 11.11940 | 12931 ft | 329 kts | 291° |
| 2026-05-07 09:32 | 47.30244 | 11.08767 | 14698 ft | 322 kts | 279° |
| 2026-05-07 09:33 | 47.30448 | 11.05445 | 16062 ft | 329 kts | 268° |
| 2026-05-07 09:33 | 47.30322 | 11.02052 | 17436 ft | 335 kts | 265° |
| 2026-05-07 09:33 | 47.30190 | 10.98573 | 18623 ft | 342 kts | 265° |
| 2026-05-07 09:33 | 47.30064 | 10.95082 | 19619 ft | 348 kts | 265° |
| 2026-05-07 09:34 | 47.29992 | 10.91489 | 20520 ft | 354 kts | 271° |
| 2026-05-07 09:34 | 47.30344 | 10.87869 | 21404 ft | 361 kts | 281° |
| 2026-05-07 09:34 | 47.31153 | 10.84321 | 22293 ft | 368 kts | 291° |
| 2026-05-07 09:34 | 47.32420 | 10.80991 | 23177 ft | 376 kts | 302° |
| 2026-05-07 09:35 | 47.34112 | 10.78045 | 23993 ft | 381 kts | 313° |
| 2026-05-07 09:35 | 47.36104 | 10.75383 | 24628 ft | 389 kts | 316° |
| 2026-05-07 09:35 | 47.38130 | 10.72713 | 25363 ft | 393 kts | 316° |
| 2026-05-07 09:35 | 47.40323 | 10.70225 | 26071 ft | 400 kts | 323° |
| 2026-05-07 09:36 | 47.42611 | 10.67933 | 26761 ft | 405 kts | 323° |
| 2026-05-07 09:36 | 47.44934 | 10.65552 | 27439 ft | 410 kts | 322° |
| 2026-05-07 09:36 | 47.47291 | 10.63127 | 28121 ft | 415 kts | 322° |
| 2026-05-07 09:36 | 47.49677 | 10.60696 | 28799 ft | 420 kts | 322° |
| 2026-05-07 09:37 | 47.52103 | 10.58230 | 29490 ft | 425 kts | 322° |
| 2026-05-07 09:37 | 47.54550 | 10.55725 | 30153 ft | 430 kts | 322° |
| 2026-05-07 09:37 | 47.56991 | 10.53214 | 30680 ft | 434 kts | 322° |
| 2026-05-07 09:37 | 47.59511 | 10.50603 | 31243 ft | 439 kts | 322° |
| 2026-05-07 09:38 | 47.61999 | 10.48030 | 32018 ft | 437 kts | 322° |
| 2026-05-07 09:38 | 47.64513 | 10.45432 | 32371 ft | 445 kts | 322° |
| 2026-05-07 09:38 | 47.67025 | 10.42699 | 32858 ft | 447 kts | 317° |
| 2026-05-07 09:38 | 47.69242 | 10.39449 | 33306 ft | 450 kts | 308° |
| 2026-05-07 09:39 | 47.71104 | 10.35727 | 33779 ft | 451 kts | 299° |
| 2026-05-07 09:39 | 47.72550 | 10.31659 | 34199 ft | 452 kts | 290° |
| 2026-05-07 09:39 | 47.73577 | 10.27235 | 34608 ft | 452 kts | 282° |
| 2026-05-07 09:39 | 47.74129 | 10.22632 | 35002 ft | 454 kts | 274° |
| 2026-05-07 09:40 | 47.74201 | 10.17956 | 35468 ft | 453 kts | 266° |
| 2026-05-07 09:40 | 47.74083 | 10.13274 | 36041 ft | 453 kts | 266° |
| 2026-05-07 09:40 | 47.73978 | 10.08591 | 36513 ft | 455 kts | 266° |
| 2026-05-07 09:40 | 47.73870 | 10.03871 | 37035 ft | 455 kts | 266° |
| 2026-05-07 09:41 | 47.73753 | 9.99189 | 37535 ft | 455 kts | 266° |
| 2026-05-07 09:41 | 47.73633 | 9.94492 | 38019 ft | 455 kts | 266° |
| 2026-05-07 09:41 | 47.73516 | 9.89776 | 38494 ft | 455 kts | 266° |
| 2026-05-07 09:41 | 47.73400 | 9.85099 | 38919 ft | 455 kts | 266° |
| 2026-05-07 09:42 | 47.73279 | 9.80432 | 39290 ft | 455 kts | 266° |
| 2026-05-07 09:42 | 47.73153 | 9.75743 | 39656 ft | 454 kts | 266° |
| 2026-05-07 09:42 | 47.73029 | 9.71102 | 40009 ft | 454 kts | 266° |
| 2026-05-07 09:42 | 47.72904 | 9.66414 | 40346 ft | 454 kts | 266° |
| 2026-05-07 09:43 | 47.72774 | 9.61737 | 40662 ft | 454 kts | 266° |
| 2026-05-07 09:43 | 47.72641 | 9.57049 | 40966 ft | 454 kts | 266° |
| 2026-05-07 09:43 | 47.72507 | 9.52375 | 41254 ft | 454 kts | 266° |
| 2026-05-07 09:43 | 47.72371 | 9.47719 | 41533 ft | 454 kts | 266° |
| 2026-05-07 09:44 | 47.72232 | 9.43030 | 41806 ft | 454 kts | 266° |
| 2026-05-07 09:44 | 47.72098 | 9.38367 | 42071 ft | 454 kts | 266° |
| 2026-05-07 09:44 | 47.71978 | 9.33663 | 42319 ft | 454 kts | 266° |
| 2026-05-07 09:44 | 47.71858 | 9.28989 | 42577 ft | 453 kts | 266° |
| 2026-05-07 09:45 | 47.71726 | 9.24357 | 42809 ft | 454 kts | 266° |
| 2026-05-07 09:45 | 47.71585 | 9.19607 | 43007 ft | 456 kts | 266° |
| 2026-05-07 09:45 | 47.71436 | 9.14881 | 43027 ft | 460 kts | 265° |
| 2026-05-07 09:46 | 47.71134 | 9.05422 | 43030 ft | 460 kts | 265° |
| 2026-05-07 09:46 | 47.70820 | 8.95981 | 43027 ft | 455 kts | 265° |
| 2026-05-07 09:47 | 47.70505 | 8.86667 | 43027 ft | 451 kts | 265° |
| 2026-05-07 09:47 | 47.70181 | 8.77363 | 43040 ft | 455 kts | 265° |
| 2026-05-07 09:48 | 47.69848 | 8.67949 | 43042 ft | 459 kts | 265° |
| 2026-05-07 09:48 | 47.69503 | 8.58461 | 43046 ft | 459 kts | 265° |
| 2026-05-07 09:49 | 47.69150 | 8.49019 | 43048 ft | 456 kts | 264° |
| 2026-05-07 09:49 | 47.67847 | 8.39918 | 43044 ft | 449 kts | 249° |
| 2026-05-07 09:50 | 47.65424 | 8.31360 | 43051 ft | 451 kts | 246° |
| 2026-05-07 09:50 | 47.62964 | 8.22723 | 43051 ft | 456 kts | 246° |
| 2026-05-07 09:51 | 47.60480 | 8.14105 | 43049 ft | 457 kts | 246° |
| 2026-05-07 09:51 | 47.58013 | 8.05537 | 43047 ft | 455 kts | 246° |
| 2026-05-07 09:52 | 47.55526 | 7.96954 | 43050 ft | 452 kts | 246° |
| 2026-05-07 09:52 | 47.53046 | 7.88407 | 43040 ft | 450 kts | 246° |
| 2026-05-07 09:53 | 47.50566 | 7.79901 | 43038 ft | 450 kts | 246° |
| 2026-05-07 09:53 | 47.48422 | 7.71256 | 43044 ft | 452 kts | 256° |
| 2026-05-07 09:54 | 47.47856 | 7.61983 | 43056 ft | 455 kts | 271° |
| 2026-05-07 09:54 | 47.48974 | 7.52748 | 43051 ft | 459 kts | 282° |
| 2026-05-07 09:55 | 47.50502 | 7.43573 | 43050 ft | 460 kts | 282° |
| 2026-05-07 09:55 | 47.52026 | 7.34384 | 43050 ft | 460 kts | 282° |
| 2026-05-07 09:56 | 47.53547 | 7.25164 | 43059 ft | 461 kts | 282° |
| 2026-05-07 09:56 | 47.55048 | 7.16012 | 43062 ft | 461 kts | 282° |
| 2026-05-07 09:57 | 47.56558 | 7.06756 | 43055 ft | 462 kts | 282° |
| 2026-05-07 09:57 | 47.58061 | 6.97493 | 43052 ft | 462 kts | 282° |
| 2026-05-07 09:58 | 47.59557 | 6.88222 | 43049 ft | 462 kts | 282° |
| 2026-05-07 09:58 | 47.61036 | 6.79003 | 43053 ft | 463 kts | 282° |
| 2026-05-07 09:59 | 47.62518 | 6.69713 | 43058 ft | 463 kts | 282° |
| 2026-05-07 09:59 | 47.63994 | 6.60410 | 43058 ft | 461 kts | 281° |
| 2026-05-07 10:00 | 47.65210 | 6.52705 | 43056 ft | 460 kts | 281° |
| 2026-05-07 10:00 | 47.66652 | 6.43522 | 43046 ft | 458 kts | 281° |
| 2026-05-07 10:01 | 47.68090 | 6.34315 | 43041 ft | 456 kts | 281° |
| 2026-05-07 10:01 | 47.69757 | 6.25212 | 43056 ft | 458 kts | 286° |
| 2026-05-07 10:02 | 47.71688 | 6.16152 | 43059 ft | 461 kts | 285° |
| 2026-05-07 10:02 | 47.73613 | 6.07050 | 43061 ft | 463 kts | 285° |
| 2026-05-07 10:03 | 47.75538 | 5.97940 | 43060 ft | 464 kts | 285° |
| 2026-05-07 10:03 | 47.77451 | 5.88824 | 43063 ft | 461 kts | 285° |
| 2026-05-07 10:04 | 47.79356 | 5.79719 | 43055 ft | 459 kts | 285° |
| 2026-05-07 10:04 | 47.81244 | 5.70644 | 43049 ft | 457 kts | 285° |
| 2026-05-07 10:05 | 47.83116 | 5.61609 | 43052 ft | 457 kts | 285° |
| 2026-05-07 10:05 | 47.84983 | 5.52558 | 43050 ft | 459 kts | 285° |
| 2026-05-07 10:06 | 47.86856 | 5.43437 | 43057 ft | 461 kts | 285° |
| 2026-05-07 10:06 | 47.88729 | 5.34271 | 43058 ft | 463 kts | 285° |
| 2026-05-07 10:07 | 47.91089 | 5.25403 | 43049 ft | 466 kts | 297° |
| 2026-05-07 10:07 | 47.95023 | 5.17702 | 43061 ft | 468 kts | 310° |
| 2026-05-07 10:08 | 47.99381 | 5.10523 | 43055 ft | 466 kts | 310° |
| 2026-05-07 10:08 | 48.03721 | 5.03347 | 43047 ft | 465 kts | 310° |
| 2026-05-07 10:09 | 48.08035 | 4.96204 | 43043 ft | 463 kts | 310° |
| 2026-05-07 10:09 | 48.12379 | 4.88984 | 43048 ft | 464 kts | 310° |
| 2026-05-07 10:10 | 48.16681 | 4.81820 | 43052 ft | 467 kts | 310° |
| 2026-05-07 10:10 | 48.21039 | 4.74540 | 43070 ft | 470 kts | 310° |
| 2026-05-07 10:11 | 48.25403 | 4.67230 | 43055 ft | 471 kts | 309° |
| 2026-05-07 10:11 | 48.29779 | 4.59880 | 43057 ft | 468 kts | 309° |
| 2026-05-07 10:12 | 48.34068 | 4.52655 | 43054 ft | 465 kts | 309° |
| 2026-05-07 10:12 | 48.38362 | 4.45402 | 43058 ft | 464 kts | 309° |
| 2026-05-07 10:13 | 48.42674 | 4.38098 | 43064 ft | 468 kts | 309° |
| 2026-05-07 10:13 | 48.47001 | 4.30749 | 43082 ft | 470 kts | 309° |
| 2026-05-07 10:14 | 48.51345 | 4.23351 | 43069 ft | 470 kts | 309° |
| 2026-05-07 10:14 | 48.55643 | 4.16011 | 43068 ft | 468 kts | 309° |
| 2026-05-07 10:15 | 48.59961 | 4.08615 | 43076 ft | 466 kts | 309° |
| 2026-05-07 10:15 | 48.64212 | 4.01313 | 43073 ft | 464 kts | 309° |
| 2026-05-07 10:16 | 48.68489 | 3.93947 | 43070 ft | 465 kts | 309° |
| 2026-05-07 10:16 | 48.72755 | 3.86560 | 43071 ft | 467 kts | 308° |
| 2026-05-07 10:17 | 48.76932 | 3.78994 | 43069 ft | 470 kts | 308° |
| 2026-05-07 10:17 | 48.81153 | 3.71377 | 43065 ft | 470 kts | 308° |
| 2026-05-07 10:18 | 48.85311 | 3.63806 | 43063 ft | 468 kts | 308° |
| 2026-05-07 10:18 | 48.89471 | 3.56237 | 43061 ft | 466 kts | 308° |
| 2026-05-07 10:19 | 48.93619 | 3.48653 | 43061 ft | 465 kts | 308° |
| 2026-05-07 10:19 | 48.97744 | 3.41099 | 43064 ft | 464 kts | 307° |
| 2026-05-07 10:20 | 49.01873 | 3.33509 | 43064 ft | 466 kts | 307° |
| 2026-05-07 10:20 | 49.05994 | 3.25917 | 43063 ft | 468 kts | 307° |
| 2026-05-07 10:21 | 49.10155 | 3.18227 | 43067 ft | 469 kts | 307° |
| 2026-05-07 10:21 | 49.14314 | 3.10519 | 43071 ft | 471 kts | 307° |
| 2026-05-07 10:22 | 49.18468 | 3.02797 | 43065 ft | 469 kts | 307° |
| 2026-05-07 10:22 | 49.22596 | 2.95101 | 43062 ft | 466 kts | 307° |
| 2026-05-07 10:23 | 49.26675 | 2.87475 | 43058 ft | 464 kts | 307° |
| 2026-05-07 10:23 | 49.30763 | 2.79808 | 43066 ft | 465 kts | 307° |
| 2026-05-07 10:24 | 49.34856 | 2.72112 | 43069 ft | 467 kts | 307° |
| 2026-05-07 10:24 | 49.39017 | 2.64421 | 43079 ft | 469 kts | 308° |
| 2026-05-07 10:25 | 49.43187 | 2.56681 | 43080 ft | 471 kts | 307° |
| 2026-05-07 10:25 | 49.47324 | 2.48970 | 43080 ft | 469 kts | 307° |
| 2026-05-07 10:26 | 49.51466 | 2.41238 | 43071 ft | 468 kts | 307° |
| 2026-05-07 10:26 | 49.55585 | 2.33519 | 43073 ft | 466 kts | 307° |
| 2026-05-07 10:27 | 49.59693 | 2.25804 | 43071 ft | 465 kts | 307° |
| 2026-05-07 10:27 | 49.63772 | 2.18114 | 43077 ft | 467 kts | 307° |
| 2026-05-07 10:28 | 49.67889 | 2.10335 | 43084 ft | 471 kts | 307° |
| 2026-05-07 10:28 | 49.72038 | 2.02470 | 43080 ft | 472 kts | 307° |
| 2026-05-07 10:29 | 49.76172 | 1.94612 | 43072 ft | 470 kts | 307° |
| 2026-05-07 10:29 | 49.78217 | 1.90717 | 42417 ft | 463 kts | 307° |
| 2026-05-07 10:29 | 49.80259 | 1.86816 | 41311 ft | 467 kts | 307° |
| 2026-05-07 10:30 | 49.84340 | 1.79015 | 39492 ft | 464 kts | 307° |
| 2026-05-07 10:30 | 49.86369 | 1.75128 | 38512 ft | 463 kts | 307° |
| 2026-05-07 10:30 | 49.88389 | 1.71245 | 37326 ft | 462 kts | 307° |
| 2026-05-07 10:30 | 49.90383 | 1.67417 | 36168 ft | 460 kts | 307° |
| 2026-05-07 10:31 | 49.92392 | 1.63548 | 34983 ft | 458 kts | 307° |
| 2026-05-07 10:31 | 49.94385 | 1.59696 | 33748 ft | 456 kts | 307° |
| 2026-05-07 10:31 | 49.96332 | 1.55943 | 33233 ft | 440 kts | 307° |
| 2026-05-07 10:31 | 49.98272 | 1.52287 | 32634 ft | 436 kts | 310° |
| 2026-05-07 10:32 | 50.00509 | 1.49021 | 32063 ft | 449 kts | 317° |
| 2026-05-07 10:32 | 50.02914 | 1.45779 | 31461 ft | 464 kts | 317° |
| 2026-05-07 10:32 | 50.05362 | 1.42445 | 30838 ft | 467 kts | 317° |
| 2026-05-07 10:32 | 50.07790 | 1.39134 | 30222 ft | 460 kts | 317° |
| 2026-05-07 10:33 | 50.10175 | 1.35888 | 29582 ft | 450 kts | 317° |
| 2026-05-07 10:33 | 50.12505 | 1.32712 | 28997 ft | 440 kts | 317° |
| 2026-05-07 10:33 | 50.14784 | 1.29595 | 28424 ft | 434 kts | 317° |
| 2026-05-07 10:33 | 50.17054 | 1.26485 | 28084 ft | 438 kts | 317° |
| 2026-05-07 10:34 | 50.19386 | 1.23287 | 28095 ft | 455 kts | 317° |
| 2026-05-07 10:34 | 50.21707 | 1.20108 | 27958 ft | 435 kts | 317° |
| 2026-05-07 10:34 | 50.23965 | 1.17011 | 26567 ft | 431 kts | 317° |
| 2026-05-07 10:34 | 50.26205 | 1.13922 | 25459 ft | 425 kts | 317° |
| 2026-05-07 10:35 | 50.28372 | 1.10940 | 25003 ft | 408 kts | 317° |
| 2026-05-07 10:35 | 50.30485 | 1.08029 | 24478 ft | 404 kts | 317° |
| 2026-05-07 10:35 | 50.32607 | 1.05099 | 23945 ft | 411 kts | 317° |
| 2026-05-07 10:35 | 50.34759 | 1.02117 | 23359 ft | 415 kts | 317° |
| 2026-05-07 10:36 | 50.36919 | 0.99124 | 22801 ft | 413 kts | 317° |
| 2026-05-07 10:36 | 50.39065 | 0.96152 | 22263 ft | 408 kts | 317° |
| 2026-05-07 10:36 | 50.41178 | 0.93224 | 21724 ft | 404 kts | 317° |
| 2026-05-07 10:36 | 50.43105 | 0.90052 | 21189 ft | 400 kts | 307° |
| 2026-05-07 10:37 | 50.44624 | 0.86425 | 20670 ft | 396 kts | 297° |
| 2026-05-07 10:37 | 50.45709 | 0.82486 | 20146 ft | 392 kts | 288° |
| 2026-05-07 10:37 | 50.46480 | 0.78402 | 19640 ft | 390 kts | 285° |
| 2026-05-07 10:37 | 50.47234 | 0.74380 | 19133 ft | 388 kts | 285° |
| 2026-05-07 10:38 | 50.47999 | 0.70325 | 18622 ft | 387 kts | 285° |
| 2026-05-07 10:38 | 50.48752 | 0.66264 | 18101 ft | 386 kts | 283° |
| 2026-05-07 10:38 | 50.49197 | 0.62093 | 18091 ft | 396 kts | 277° |
| 2026-05-07 10:38 | 50.49608 | 0.57728 | 18093 ft | 410 kts | 278° |
| 2026-05-07 10:39 | 50.50036 | 0.53331 | 18082 ft | 391 kts | 278° |
| 2026-05-07 10:39 | 50.50427 | 0.49233 | 17205 ft | 375 kts | 278° |
| 2026-05-07 10:39 | 50.50799 | 0.45208 | 16514 ft | 363 kts | 277° |
| 2026-05-07 10:39 | 50.51156 | 0.41374 | 16335 ft | 353 kts | 277° |
| 2026-05-07 10:40 | 50.51520 | 0.37478 | 16102 ft | 368 kts | 277° |
| 2026-05-07 10:40 | 50.51895 | 0.33452 | 15836 ft | 374 kts | 277° |
| 2026-05-07 10:40 | 50.52270 | 0.29409 | 15555 ft | 372 kts | 277° |
| 2026-05-07 10:40 | 50.52637 | 0.25415 | 15284 ft | 369 kts | 277° |
| 2026-05-07 10:41 | 50.53003 | 0.21431 | 15014 ft | 366 kts | 277° |
| 2026-05-07 10:41 | 50.53365 | 0.17476 | 14748 ft | 365 kts | 277° |
| 2026-05-07 10:41 | 50.53720 | 0.13580 | 14477 ft | 363 kts | 277° |
| 2026-05-07 10:41 | 50.54078 | 0.09637 | 14205 ft | 363 kts | 277° |
| 2026-05-07 10:42 | 50.54436 | 0.05679 | 13948 ft | 363 kts | 277° |
| 2026-05-07 10:42 | 50.55139 | 0.01929 | 13590 ft | 356 kts | 297° |
| 2026-05-07 10:42 | 50.56694 | -0.00904 | 13225 ft | 340 kts | 320° |
| 2026-05-07 10:42 | 50.58586 | -0.02976 | 12896 ft | 322 kts | 327° |
| 2026-05-07 10:43 | 50.60429 | -0.04817 | 12560 ft | 307 kts | 325° |
| 2026-05-07 10:43 | 50.62096 | -0.06823 | 12203 ft | 297 kts | 318° |
| 2026-05-07 10:43 | 50.63596 | -0.08967 | 12073 ft | 286 kts | 316° |
| 2026-05-07 10:43 | 50.65089 | -0.11029 | 12065 ft | 288 kts | 319° |
| 2026-05-07 10:44 | 50.66672 | -0.13088 | 12074 ft | 300 kts | 320° |
| 2026-05-07 10:44 | 50.68296 | -0.15209 | 12085 ft | 304 kts | 319° |
| 2026-05-07 10:44 | 50.69907 | -0.17357 | 12083 ft | 303 kts | 319° |
| 2026-05-07 10:44 | 50.71507 | -0.19497 | 12082 ft | 301 kts | 319° |
| 2026-05-07 10:45 | 50.73105 | -0.21619 | 12081 ft | 300 kts | 319° |
| 2026-05-07 10:45 | 50.74696 | -0.23734 | 12079 ft | 299 kts | 319° |
| 2026-05-07 10:45 | 50.76287 | -0.25855 | 12079 ft | 300 kts | 319° |
| 2026-05-07 10:45 | 50.77881 | -0.27982 | 12079 ft | 300 kts | 319° |
| 2026-05-07 10:46 | 50.79474 | -0.30109 | 12079 ft | 300 kts | 319° |
| 2026-05-07 10:46 | 50.81074 | -0.32249 | 12080 ft | 301 kts | 319° |
| 2026-05-07 10:46 | 50.82672 | -0.34385 | 11871 ft | 307 kts | 319° |
| 2026-05-07 10:46 | 50.83766 | -0.35850 | 11587 ft | 311 kts | 319° |
| 2026-05-07 10:47 | 50.85405 | -0.38047 | 11176 ft | 305 kts | 319° |
| 2026-05-07 10:47 | 50.86998 | -0.40180 | 10776 ft | 296 kts | 319° |
| 2026-05-07 10:47 | 50.88555 | -0.42271 | 10392 ft | 289 kts | 319° |
| 2026-05-07 10:47 | 50.90563 | -0.44969 | 10079 ft | 280 kts | 319° |
| 2026-05-07 10:48 | 50.91560 | -0.46310 | 10076 ft | 278 kts | 319° |
| 2026-05-07 10:48 | 50.93062 | -0.48334 | 10077 ft | 288 kts | 319° |
| 2026-05-07 10:48 | 50.94613 | -0.50422 | 10081 ft | 296 kts | 319° |
| 2026-05-07 10:48 | 50.96179 | -0.52533 | 10081 ft | 296 kts | 319° |
| 2026-05-07 10:49 | 50.97722 | -0.54614 | 10078 ft | 293 kts | 319° |
| 2026-05-07 10:49 | 50.99287 | -0.56726 | 10066 ft | 290 kts | 319° |
| 2026-05-07 10:49 | 51.00792 | -0.58763 | 9512 ft | 288 kts | 319° |
| 2026-05-07 10:49 | 51.02312 | -0.60820 | 8947 ft | 285 kts | 319° |
| 2026-05-07 10:50 | 51.03809 | -0.62847 | 8401 ft | 282 kts | 319° |
| 2026-05-07 10:50 | 51.05297 | -0.64865 | 7888 ft | 278 kts | 319° |
| 2026-05-07 10:50 | 51.06760 | -0.66846 | 7391 ft | 275 kts | 319° |
| 2026-05-07 10:50 | 51.08210 | -0.68816 | 6897 ft | 272 kts | 318° |
| 2026-05-07 10:51 | 51.09634 | -0.70750 | 6415 ft | 268 kts | 318° |
| 2026-05-07 10:51 | 51.11049 | -0.72679 | 5882 ft | 266 kts | 318° |
| 2026-05-07 10:51 | 51.12467 | -0.74560 | 5361 ft | 264 kts | 323° |
| 2026-05-07 10:51 | 51.14115 | -0.75812 | 4807 ft | 264 kts | 346° |
| 2026-05-07 10:52 | 51.15906 | -0.75713 | 4319 ft | 264 kts | 16° |
| 2026-05-07 10:52 | 51.17382 | -0.74159 | 4261 ft | 248 kts | 45° |
| 2026-05-07 10:52 | 51.18472 | -0.72154 | 4263 ft | 231 kts | 50° |
| 2026-05-07 10:52 | 51.19457 | -0.70215 | 4199 ft | 221 kts | 50° |
| 2026-05-07 10:53 | 51.20420 | -0.68296 | 3982 ft | 223 kts | 50° |
| 2026-05-07 10:53 | 51.21383 | -0.66367 | 3774 ft | 221 kts | 51° |
| 2026-05-07 10:53 | 51.22340 | -0.64448 | 3511 ft | 221 kts | 51° |
| 2026-05-07 10:53 | 51.23295 | -0.62536 | 3253 ft | 220 kts | 51° |
| 2026-05-07 10:54 | 51.24244 | -0.60643 | 2880 ft | 218 kts | 51° |
| 2026-05-07 10:54 | 51.25197 | -0.58760 | 2466 ft | 216 kts | 51° |
| 2026-05-07 10:54 | 51.26143 | -0.56914 | 2062 ft | 215 kts | 51° |
| 2026-05-07 10:54 | 51.27073 | -0.55111 | 1992 ft | 203 kts | 51° |
| 2026-05-07 10:55 | 51.28119 | -0.53614 | 1986 ft | 207 kts | 27° |
| 2026-05-07 10:55 | 51.29548 | -0.53306 | 1989 ft | 214 kts | 347° |
| 2026-05-07 10:55 | 51.30865 | -0.54400 | 2010 ft | 216 kts | 322° |
| 2026-05-07 10:55 | 51.31804 | -0.56240 | 1988 ft | 215 kts | 290° |
| 2026-05-07 10:56 | 51.32029 | -0.58569 | 2003 ft | 213 kts | 272° |
| 2026-05-07 10:56 | 51.32077 | -0.60927 | 2007 ft | 212 kts | 271° |
| 2026-05-07 10:56 | 51.32107 | -0.63280 | 2006 ft | 211 kts | 268° |
| 2026-05-07 10:56 | 51.31667 | -0.65452 | 1998 ft | 200 kts | 239° |
| 2026-05-07 10:57 | 51.31030 | -0.67242 | 1861 ft | 175 kts | 242° |
| 2026-05-07 10:57 | 51.30501 | -0.68860 | 1569 ft | 157 kts | 242° |
| 2026-05-07 10:57 | 51.30030 | -0.70263 | 1352 ft | 137 kts | 241° |
| 2026-05-07 10:57 | 51.29584 | -0.71601 | 1128 ft | 137 kts | 242° |
| 2026-05-07 10:58 | 51.29130 | -0.72968 | 916 ft | 141 kts | 242° |
| 2026-05-07 10:58 | 51.28664 | -0.74361 | 688 ft | 145 kts | 243° |
| 2026-05-07 10:58 | 51.28189 | -0.75790 | 431 ft | 141 kts | 243° |
| 2026-05-07 10:58 | 51.27765 | -0.77079 | 239 ft | 126 kts | 242° |
| 2026-05-07 10:59 | 51.27419 | -0.78065 | 222 ft | 46 kts | 248° |
| 2026-05-07 10:59 | 51.27401 | -0.78147 | 222 ft | 1 kts | 261° |
| 2026-05-07 10:59 | 51.27407 | -0.78169 | 222 ft | 4 kts | 266° |
| 2026-05-07 10:59 | 51.27358 | -0.78296 | 224 ft | 23 kts | 240° |
| 2026-05-07 11:00 | 51.27271 | -0.78561 | 226 ft | 26 kts | 243° |
| 2026-05-07 11:00 | 51.27248 | -0.78685 | 227 ft | 3 kts | 332° |
| 2026-05-07 11:00 | 51.27293 | -0.78718 | 227 ft | 10 kts | 341° |
| 2026-05-07 11:00 | 51.27355 | -0.78659 | 226 ft | 13 kts | 43° |
| 2026-05-07 11:01 | 51.27431 | -0.78557 | 222 ft | 16 kts | 40° |
| 2026-05-07 11:01 | 51.27522 | -0.78431 | 222 ft | 19 kts | 41° |
| 2026-05-07 11:01 | 51.27629 | -0.78280 | 223 ft | 21 kts | 41° |
| 2026-05-07 11:01 | 51.27736 | -0.78116 | 218 ft | 22 kts | 33° |
| 2026-05-07 11:02 | 51.27867 | -0.77970 | 218 ft | 24 kts | 35° |
| 2026-05-07 11:02 | 51.27995 | -0.77866 | 218 ft | 18 kts | 5° |
| 2026-05-07 11:02 | 51.28102 | -0.77831 | 217 ft | 10 kts | 345° |
| 2026-05-07 11:02 | 51.28153 | -0.77829 | 217 ft | 0 kts | 35° |